Terminal Aerodrome Forecast
Issued by NWS

Home | Current Version | Previous Version | Graphics & Text | Print | Product List | Glossary On
Versions: 1 2 3 4 5 6 7 8 9 10 11 12 13 14 15 16 17 18 19 20 21 22 23 24 25 26 27 28 29 30 31 32 33 34 35 36 37 38 39 40 41 42 43
000
FTUS43 KLOT 041859 AAA
TAFORD
TAF AMD
KORD 041859Z 0419/0524 31005KT P6SM BKN035 BKN100
     FM041930 03010KT P6SM SCT020 BKN035 BKN150
     FM042100 04011KT P6SM SCT035 BKN150
     FM050000 05008KT P6SM SCT040 BKN150
     FM050600 07007KT 4SM -SHRA VCTS SCT025 BKN050 BKN100CB
     FM051100 06011KT 3SM -SHRA BR OVC010
     FM051800 06011KT P6SM SCT015 BKN050=

USA.gov is the U.S. government's official web portal to all federal, state and local government web resources and services.